Pecos, TX (79772)

2:35 AM CDT on September 04, 2015 (GMT -0500)
MesoWest | | Change Station
CLOSE
Current Station
Personal Weather Station
Location: Pecos, TX
Elevation: 2823 ft
Nearby Weather Stations

Elev 2823 ft 31.35 °N, 103.72 °W | Updated 1 hour ago

Clear
Clear
76.0 °F
Feels Like 76.0 °F
N
1.0
Wind Variable Wind from SE
Gusts 2.0 mph

Today
High -- | Low -- °F
--% Chance of Precip.
Yesterday
High -- | Low -- °F
Precip. -- in
7:32 AM 8:14 PM
Waning Gibbous, 62% visible
Pressure 29.91 in
Visibility 10.0 miles
Clouds Clear
Dew Point Not available.
Humidity Not available.
Rainfall in
Snow Depth Not available.
UV 0 out of 12
Pollen 10.00 out of 12
Air Quality Not available.
Flu Activity Not available.
METAR KPEQ 040715Z AUTO 12005KT 10SM CLR 22/09 A2991 RMK AO2 T02230092
Pressure 29.91 in
Visibility 10.0 miles
Clouds Clear
Dew Point Not available.
Humidity Not available.
Rainfall in
Snow Depth Not available.
UV 0 out of 12
Pollen 10.00 out of 12
Air Quality Not available.
Flu Activity Not available.
METAR KPEQ 040715Z AUTO 12005KT 10SM CLR 22/09 A2991 RMK AO2 T02230092

10-Day Weather Forecast

×

Almanac

Astronomy

Sep. 04, 2015 Rise Set
Actual Time
Civil Twilight
Nautical Twilight
Astronomical Twilight
Moon
Length of Visible Light
Length of Day
Tomorrow will be .
, % of the Moon is Illuminated

Today's Extremes

State Highs State Lows

Community

WunderPhotos

Upload Photos

1,852,132 photos uploaded!

WunderBlogs® & News

Nearby

Air Quality

  Air Quality AQ Index Pollutant
Not available.

Snow Depth

Station Depth Elevation

Earthquake Activity

City Distance Mag. Time & Date
Minimum magnitude displayed is 2.5.

Coastal Water Temperatures

Place Temperature

Stations

Nearby Weather Stations

Station Location Temp. Windchill Dew Point Humidity Wind Precip. Elev Updated Type